createdAt,value
2022-09-21T00:01:39.767Z,78.70
2022-09-21T00:04:09.774Z,78.80
2022-09-21T00:06:39.177Z,79.10
2022-09-21T00:09:09.385Z,79.20
2022-09-21T00:11:38.742Z,79.10
2022-09-21T00:14:10.640Z,78.80
2022-09-21T00:16:40.103Z,78.90
2022-09-21T00:19:10.355Z,78.80
2022-09-21T00:21:39.284Z,78.80
2022-09-21T00:24:08.811Z,79.00
2022-09-21T00:26:37.369Z,79.00
2022-09-21T00:29:06.034Z,79.10
2022-09-21T00:31:35.328Z,79.10
2022-09-21T00:34:07.593Z,79.10
2022-09-21T00:36:37.782Z,79.20
2022-09-21T00:39:05.907Z,79.40
2022-09-21T00:41:35.771Z,79.20
2022-09-21T00:44:32.443Z,79.20
2022-09-21T00:47:06.201Z,79.10
2022-09-21T00:49:35.855Z,79.10
2022-09-21T00:52:08.443Z,79.00
2022-09-21T00:54:44.048Z,79.00
2022-09-21T00:57:12.925Z,79.90
2022-09-21T00:59:42.302Z,79.00
2022-09-21T01:02:10.790Z,79.20
2022-09-21T01:04:40.195Z,79.20
2022-09-21T01:07:15.000Z,79.20
2022-09-21T01:09:44.921Z,79.40
2022-09-21T01:12:26.962Z,79.40
2022-09-21T01:15:15.223Z,79.40
2022-09-21T01:17:51.396Z,79.30
2022-09-21T01:20:52.535Z,79.20
2022-09-21T01:23:45.195Z,79.20
2022-09-21T01:26:23.120Z,79.20
2022-09-21T01:29:15.253Z,79.40
2022-09-21T01:31:47.862Z,79.50
2022-09-21T01:34:23.243Z,79.60
2022-09-21T01:36:55.804Z,79.70
2022-09-21T01:39:26.444Z,79.70
2022-09-21T01:41:56.773Z,79.60
2022-09-21T01:44:30.857Z,79.60
2022-09-21T01:47:01.272Z,79.40
2022-09-21T01:49:34.876Z,79.40
2022-09-21T01:52:10.396Z,79.20
2022-09-21T01:54:43.738Z,79.00
2022-09-21T01:57:18.235Z,78.80
2022-09-21T01:59:53.836Z,78.80
2022-09-21T02:02:26.525Z,79.00
2022-09-21T02:04:55.184Z,79.20
2022-09-21T02:07:23.803Z,79.00
2022-09-21T02:09:51.900Z,79.00
2022-09-21T02:12:20.365Z,79.50
2022-09-21T02:14:52.206Z,79.10
2022-09-21T02:17:32.768Z,79.20
2022-09-21T02:20:08.767Z,79.10
2022-09-21T02:22:42.493Z,79.10
2022-09-21T02:25:15.262Z,79.20
2022-09-21T02:27:51.713Z,79.40
2022-09-21T02:34:20.770Z,80.20
2022-09-21T02:36:51.460Z,80.10
2022-09-21T02:39:26.523Z,80.10
2022-09-21T02:42:03.775Z,80.40
2022-09-21T02:44:36.445Z,80.20
2022-09-21T02:47:10.307Z,80.20
2022-09-21T02:49:44.775Z,80.10
2022-09-21T02:52:18.212Z,80.10
2022-09-21T02:54:48.691Z,80.30
2022-09-21T02:57:20.125Z,80.60
2022-09-21T02:59:48.471Z,80.90
2022-09-21T03:02:16.967Z,81.00
2022-09-21T03:04:49.080Z,81.00
2022-09-21T03:07:18.241Z,80.80
2022-09-21T03:09:47.033Z,80.60
2022-09-21T03:12:15.101Z,80.60
2022-09-21T03:14:43.895Z,80.60
2022-09-21T03:17:12.365Z,80.70
2022-09-21T03:19:40.706Z,80.60
2022-09-21T03:22:10.641Z,80.70
2022-09-21T03:24:48.136Z,80.80
2022-09-21T03:27:18.413Z,80.80
2022-09-21T03:29:47.211Z,80.80
2022-09-21T03:32:16.054Z,81.00
2022-09-21T03:34:44.140Z,81.30
2022-09-21T03:37:14.060Z,81.20
2022-09-21T03:39:42.096Z,81.30
2022-09-21T03:42:10.678Z,81.40
2022-09-21T03:44:39.165Z,81.70
2022-09-21T03:47:07.604Z,81.50
2022-09-21T03:49:36.385Z,81.70
2022-09-21T03:52:05.173Z,81.90
2022-09-21T03:54:34.818Z,81.90
2022-09-21T03:57:02.895Z,81.90
2022-09-21T03:59:31.136Z,81.80
2022-09-21T04:01:59.291Z,81.70
2022-09-21T04:04:27.310Z,81.90
2022-09-21T04:06:55.803Z,81.90
2022-09-21T04:09:23.884Z,82.00
2022-09-21T04:11:53.941Z,82.30
2022-09-21T04:14:23.714Z,82.50
2022-09-21T04:16:52.114Z,82.60
2022-09-21T04:19:21.528Z,82.60
2022-09-21T04:21:51.489Z,82.60
2022-09-21T04:24:19.832Z,82.70
2022-09-21T04:26:48.430Z,83.00
2022-09-21T04:29:17.955Z,83.00
2022-09-21T04:31:46.421Z,83.10
2022-09-21T04:34:15.781Z,83.00
2022-09-21T04:36:44.349Z,83.00
2022-09-21T04:39:12.419Z,82.80
2022-09-21T04:41:40.504Z,82.60
2022-09-21T04:44:09.201Z,82.70
2022-09-21T04:46:38.824Z,82.80
2022-09-21T04:49:07.301Z,82.70
2022-09-21T04:51:35.851Z,82.80
2022-09-21T04:54:04.147Z,82.70
2022-09-21T04:56:32.633Z,82.60
2022-09-21T04:59:00.671Z,82.50
2022-09-21T05:01:29.430Z,82.40
2022-09-21T05:04:02.221Z,82.70
2022-09-21T05:06:31.051Z,82.60
2022-09-21T05:09:16.889Z,82.60
2022-09-21T05:11:45.682Z,82.80
2022-09-21T05:14:14.226Z,83.00
2022-09-21T05:16:42.304Z,83.20
2022-09-21T05:19:12.174Z,83.20
2022-09-21T05:21:40.223Z,83.30
2022-09-21T05:24:09.025Z,83.40
2022-09-21T05:26:37.140Z,83.60
2022-09-21T05:29:06.677Z,83.60
2022-09-21T05:31:42.845Z,83.90
2022-09-21T05:34:31.907Z,84.10
2022-09-21T05:37:11.259Z,84.20
2022-09-21T05:39:40.232Z,84.10
2022-09-21T05:42:10.469Z,84.10
2022-09-21T05:44:39.603Z,85.20
2022-09-21T05:47:19.543Z,84.50
2022-09-21T05:49:56.804Z,84.50
2022-09-21T05:52:32.993Z,84.50
2022-09-21T05:55:07.242Z,84.50
2022-09-21T05:57:45.738Z,84.50
2022-09-21T06:00:18.824Z,84.90
2022-09-21T06:03:01.893Z,84.90
2022-09-21T06:05:31.555Z,85.10
2022-09-21T06:08:00.455Z,85.00
2022-09-21T06:10:33.461Z,85.00
2022-09-21T06:13:02.265Z,85.10
2022-09-21T06:15:30.476Z,85.00
2022-09-21T06:18:00.339Z,84.80
2022-09-21T06:20:28.498Z,85.10
2022-09-21T06:23:02.916Z,85.10
2022-09-21T06:25:31.225Z,85.20
2022-09-21T06:28:04.922Z,85.20
2022-09-21T06:30:34.838Z,85.40
2022-09-21T06:33:03.785Z,85.40
2022-09-21T06:35:33.807Z,85.40
2022-09-21T06:38:04.408Z,85.20
2022-09-21T06:40:34.237Z,85.10
2022-09-21T06:43:03.436Z,85.30
2022-09-21T06:45:32.281Z,85.60
2022-09-21T06:48:00.934Z,85.60
2022-09-21T06:50:29.041Z,85.50
2022-09-21T06:52:57.143Z,85.30
2022-09-21T06:55:26.530Z,85.20
2022-09-21T06:57:57.016Z,85.20
2022-09-21T07:00:25.080Z,85.20
2022-09-21T07:02:53.134Z,85.20
2022-09-21T07:05:21.639Z,85.40
2022-09-21T07:07:53.482Z,85.40
2022-09-21T07:10:22.739Z,85.40
2022-09-21T07:12:52.856Z,85.30
2022-09-21T07:15:21.566Z,85.40
2022-09-21T07:17:52.086Z,85.50
2022-09-21T07:20:20.698Z,86.40
2022-09-21T07:22:48.838Z,85.50
2022-09-21T07:25:17.149Z,85.90
2022-09-21T07:27:45.632Z,85.50
2022-09-21T07:30:15.709Z,85.70
2022-09-21T07:32:43.754Z,85.50
2022-09-21T07:35:12.674Z,85.40
2022-09-21T07:37:40.728Z,85.40
2022-09-21T07:40:10.331Z,85.70
2022-09-21T07:42:38.405Z,85.70
2022-09-21T07:45:08.131Z,85.50
2022-09-21T07:47:38.044Z,85.60
2022-09-21T07:50:06.668Z,85.60
2022-09-21T07:52:35.582Z,85.90
2022-09-21T07:55:03.607Z,85.90
2022-09-21T07:57:49.409Z,86.00
2022-09-21T08:00:18.212Z,85.90
2022-09-21T08:02:48.122Z,86.80
2022-09-21T08:05:16.630Z,85.80
2022-09-21T08:07:45.231Z,85.80
2022-09-21T08:10:13.267Z,85.80
2022-09-21T08:12:41.723Z,85.80
2022-09-21T08:15:30.678Z,85.70
2022-09-21T08:18:01.738Z,85.80
2022-09-21T08:20:30.281Z,85.60
2022-09-21T08:22:58.768Z,85.50
2022-09-21T08:25:27.801Z,85.30
2022-09-21T08:27:59.931Z,85.30
2022-09-21T08:30:31.536Z,85.30
2022-09-21T08:33:00.960Z,85.30
2022-09-21T08:35:29.729Z,85.40
2022-09-21T08:37:57.743Z,85.40
2022-09-21T08:40:26.300Z,85.50
2022-09-21T08:43:01.146Z,85.50
2022-09-21T08:45:35.884Z,85.50
2022-09-21T08:48:09.462Z,85.50
2022-09-21T08:50:43.531Z,85.30
2022-09-21T08:53:15.515Z,85.50
2022-09-21T08:55:43.616Z,85.60
2022-09-21T08:58:22.733Z,85.50
2022-09-21T09:01:02.387Z,85.50
2022-09-21T09:04:06.927Z,85.40
2022-09-21T09:06:43.241Z,85.30
2022-09-21T09:09:28.228Z,85.00
2022-09-21T09:12:12.107Z,85.00
2022-09-21T09:15:04.531Z,84.70
2022-09-21T09:17:45.377Z,84.70
2022-09-21T09:20:20.954Z,84.70
2022-09-21T09:23:04.244Z,84.90
2022-09-21T09:25:38.493Z,84.80
2022-09-21T09:28:20.952Z,84.80
2022-09-21T09:30:57.885Z,84.70
2022-09-21T09:33:29.214Z,84.80
2022-09-21T09:36:03.911Z,84.70
2022-09-21T09:38:38.656Z,84.60
2022-09-21T09:41:39.052Z,85.50
2022-09-21T09:44:22.130Z,84.30
2022-09-21T09:47:01.543Z,84.30
2022-09-21T09:49:43.425Z,84.10
2022-09-21T09:52:15.597Z,83.90
2022-09-21T09:54:44.852Z,84.00
2022-09-21T09:57:14.387Z,84.00
2022-09-21T09:59:53.309Z,83.90
2022-09-21T10:02:25.034Z,83.80
2022-09-21T10:05:06.073Z,83.90
2022-09-21T10:07:41.369Z,83.80
2022-09-21T10:10:33.071Z,83.60
2022-09-21T10:13:11.087Z,83.30
2022-09-21T10:15:44.746Z,83.40
2022-09-21T10:18:21.345Z,83.40
2022-09-21T10:20:58.131Z,83.50
2022-09-21T10:23:29.912Z,83.30
2022-09-21T10:26:01.373Z,83.30
2022-09-21T10:28:31.336Z,83.20
2022-09-21T10:31:19.257Z,83.10
2022-09-21T10:33:55.451Z,82.40
2022-09-21T10:36:28.785Z,82.60
2022-09-21T10:39:10.941Z,82.60
2022-09-21T10:41:39.592Z,83.50
2022-09-21T10:44:18.332Z,82.50
2022-09-21T10:46:47.061Z,81.80
2022-09-21T10:49:20.238Z,82.20
2022-09-21T10:51:50.655Z,81.80
2022-09-21T10:54:27.115Z,81.60
2022-09-21T10:57:02.194Z,81.00
2022-09-21T10:59:32.259Z,81.10
2022-09-21T11:02:02.061Z,81.10
2022-09-21T11:04:38.339Z,80.70
2022-09-21T11:07:16.289Z,79.60
2022-09-21T11:09:50.405Z,79.30
2022-09-21T11:12:33.763Z,79.10
2022-09-21T11:15:14.481Z,78.30
2022-09-21T11:17:49.831Z,78.50
2022-09-21T11:20:27.664Z,78.60
2022-09-21T11:23:04.418Z,77.80
2022-09-21T11:25:44.035Z,76.50
2022-09-21T11:28:20.611Z,77.30
2022-09-21T11:31:12.308Z,75.90
2022-09-21T11:34:07.784Z,75.10
2022-09-21T11:36:48.100Z,75.20
2022-09-21T11:39:24.738Z,75.60
2022-09-21T11:42:11.580Z,76.30
2022-09-21T11:44:51.262Z,75.50
2022-09-21T11:47:48.343Z,75.60
2022-09-21T11:50:44.595Z,74.80
2022-09-21T11:53:46.685Z,74.30
2022-09-21T11:56:46.850Z,73.60
2022-09-21T11:59:36.384Z,72.70
2022-09-21T12:02:31.995Z,72.30
2022-09-21T12:05:07.886Z,71.50
2022-09-21T12:07:52.323Z,71.80
2022-09-21T12:10:38.094Z,70.60
2022-09-21T12:13:14.097Z,69.80
2022-09-21T12:15:49.728Z,70.30
2022-09-21T12:18:26.334Z,68.80
2022-09-21T12:21:00.043Z,68.00
2022-09-21T12:23:33.772Z,69.10
2022-09-21T12:26:05.376Z,67.60
2022-09-21T12:28:38.934Z,67.50
2022-09-21T12:31:17.086Z,66.10
2022-09-21T12:33:49.999Z,65.20
2022-09-21T12:36:20.675Z,65.80
2022-09-21T12:38:55.132Z,65.90
2022-09-21T12:41:33.678Z,65.50
2022-09-21T12:44:14.304Z,65.00
2022-09-21T12:46:51.648Z,64.80
2022-09-21T12:49:31.571Z,64.40
2022-09-21T12:52:07.243Z,64.50
2022-09-21T12:54:45.350Z,63.50
2022-09-21T12:57:45.594Z,62.60
2022-09-21T13:00:17.546Z,61.00
2022-09-21T13:02:53.450Z,61.30
2022-09-21T13:05:33.248Z,61.00
2022-09-21T13:08:07.231Z,60.80
2022-09-21T13:10:51.781Z,60.30
2022-09-21T13:13:35.133Z,58.60
2022-09-21T13:16:05.262Z,58.50
2022-09-21T13:18:37.764Z,60.40
2022-09-21T13:21:22.038Z,60.10
2022-09-21T13:23:56.539Z,59.50
2022-09-21T13:26:37.373Z,59.70
2022-09-21T13:29:28.312Z,58.40
2022-09-21T13:31:59.329Z,59.40
2022-09-21T13:34:36.346Z,59.10
2022-09-21T13:37:31.375Z,58.10
2022-09-21T13:40:39.822Z,56.70
2022-09-21T13:43:26.002Z,57.00
2022-09-21T13:45:57.066Z,57.30
2022-09-21T13:48:29.508Z,57.60
2022-09-21T13:51:02.772Z,58.40
2022-09-21T13:53:36.378Z,57.90
2022-09-21T13:56:18.390Z,58.20
2022-09-21T13:58:49.497Z,57.60
2022-09-21T14:01:45.049Z,58.10
2022-09-21T14:04:21.541Z,57.30
2022-09-21T14:06:53.866Z,56.80
2022-09-21T14:09:25.618Z,57.20
2022-09-21T14:11:59.464Z,56.60
2022-09-21T14:14:31.750Z,55.80
2022-09-21T14:17:01.545Z,55.70
2022-09-21T14:20:03.540Z,55.40
2022-09-21T14:23:10.660Z,54.60
2022-09-21T14:25:51.733Z,54.60
2022-09-21T14:28:28.050Z,54.80
2022-09-21T14:31:04.961Z,55.20
2022-09-21T14:33:43.697Z,55.00
2022-09-21T14:36:18.297Z,55.50
2022-09-21T14:38:54.800Z,56.20
2022-09-21T14:41:26.007Z,57.00
2022-09-21T14:43:56.619Z,57.00
2022-09-21T14:46:51.876Z,57.50
2022-09-21T14:49:34.925Z,56.60
2022-09-21T14:52:21.112Z,57.10
2022-09-21T14:55:06.920Z,57.70
2022-09-21T14:57:48.817Z,57.70
2022-09-21T15:00:26.498Z,57.20
2022-09-21T15:03:25.297Z,58.10
2022-09-21T15:05:58.072Z,56.30
2022-09-21T15:09:11.217Z,56.10
2022-09-21T15:11:47.130Z,55.60
2022-09-21T15:14:28.054Z,55.70
2022-09-21T15:16:56.195Z,55.30
2022-09-21T15:19:26.930Z,56.00
2022-09-21T15:21:56.967Z,55.60
2022-09-21T15:24:31.906Z,54.60
2022-09-21T15:27:08.651Z,54.30
2022-09-21T15:29:39.105Z,53.50
2022-09-21T15:32:08.401Z,54.00
2022-09-21T15:34:36.590Z,54.00
2022-09-21T15:37:09.520Z,54.00
2022-09-21T15:39:37.713Z,53.10
2022-09-21T15:42:24.044Z,54.00
2022-09-21T15:45:06.551Z,53.40
2022-09-21T15:47:35.717Z,53.60
2022-09-21T15:50:04.306Z,53.40
2022-09-21T15:52:36.673Z,53.20
2022-09-21T15:55:15.625Z,53.00
2022-09-21T15:57:45.800Z,51.80
2022-09-21T16:00:24.222Z,52.80
2022-09-21T16:03:04.827Z,52.30
2022-09-21T16:05:42.997Z,52.10
2022-09-21T16:08:23.299Z,52.60
2022-09-21T16:10:51.526Z,51.40
2022-09-21T16:13:42.365Z,52.50
2022-09-21T16:16:12.224Z,52.10
2022-09-21T16:18:47.524Z,52.30
2022-09-21T16:21:23.719Z,51.40
2022-09-21T16:23:55.972Z,51.40
2022-09-21T16:26:27.397Z,51.70
2022-09-21T16:29:23.990Z,51.90
2022-09-21T16:31:52.523Z,51.60
2022-09-21T16:34:24.249Z,52.30
2022-09-21T16:36:55.217Z,52.40
2022-09-21T16:39:24.273Z,52.70
2022-09-21T16:42:00.049Z,52.70
2022-09-21T16:44:30.897Z,52.80
2022-09-21T16:47:00.949Z,53.10
2022-09-21T16:49:34.012Z,53.40
2022-09-21T16:52:02.399Z,53.70
2022-09-21T16:54:31.039Z,54.20
2022-09-21T16:57:00.689Z,55.20
2022-09-21T16:59:31.023Z,55.00
2022-09-21T17:02:00.565Z,55.30
2022-09-21T17:04:31.211Z,55.60
2022-09-21T17:07:00.864Z,55.70
2022-09-21T17:09:32.369Z,56.00
2022-09-21T17:12:01.631Z,56.40
2022-09-21T17:14:35.502Z,56.70
2022-09-21T17:17:06.116Z,56.90
2022-09-21T17:19:34.786Z,57.20
2022-09-21T17:22:04.474Z,57.70
2022-09-21T17:24:49.650Z,57.40
2022-09-21T17:27:20.057Z,57.50
2022-09-21T17:29:50.430Z,57.60
2022-09-21T17:32:21.092Z,57.90
2022-09-21T17:34:53.329Z,57.90
2022-09-21T17:37:22.288Z,58.10
2022-09-21T17:39:50.353Z,58.20
2022-09-21T17:42:21.286Z,58.30
2022-09-21T17:45:17.479Z,58.80
2022-09-21T17:47:46.370Z,58.90
2022-09-21T17:50:24.545Z,59.10
2022-09-21T17:53:11.503Z,59.40
2022-09-21T17:55:40.196Z,59.60
2022-09-21T17:58:25.556Z,59.90
2022-09-21T18:01:02.169Z,60.10
2022-09-21T18:03:32.794Z,60.40
2022-09-21T18:06:01.710Z,60.30
2022-09-21T18:08:31.309Z,60.40
2022-09-21T18:11:09.285Z,60.30
2022-09-21T18:13:50.190Z,60.60
2022-09-21T18:16:28.133Z,60.90
2022-09-21T18:19:18.048Z,61.30
2022-09-21T18:21:51.062Z,61.50
2022-09-21T18:24:22.093Z,61.30
2022-09-21T18:26:52.337Z,61.30
2022-09-21T18:29:39.366Z,61.30
2022-09-21T18:32:26.452Z,61.50
2022-09-21T18:35:20.697Z,62.00
2022-09-21T18:38:03.259Z,62.10
2022-09-21T18:40:39.484Z,62.50
2022-09-21T18:43:22.672Z,62.80
2022-09-21T18:45:58.246Z,63.10
2022-09-21T18:48:48.501Z,63.10
2022-09-21T18:51:25.048Z,63.20
2022-09-21T18:53:56.452Z,63.30
2022-09-21T18:56:25.695Z,63.30
2022-09-21T18:58:54.398Z,63.40
2022-09-21T19:01:24.246Z,63.30
2022-09-21T19:03:54.392Z,63.30
2022-09-21T19:06:33.038Z,63.50
2022-09-21T19:09:08.936Z,63.80
2022-09-21T19:11:45.186Z,63.80
2022-09-21T19:14:20.199Z,63.70
2022-09-21T19:17:05.193Z,64.00
2022-09-21T19:19:43.054Z,64.20
2022-09-21T19:22:17.476Z,64.30
2022-09-21T19:24:55.412Z,64.40
2022-09-21T19:27:29.716Z,64.60
2022-09-21T19:30:05.909Z,64.80
2022-09-21T19:32:37.784Z,64.60
2022-09-21T19:35:22.493Z,64.60
2022-09-21T19:37:52.031Z,64.90
2022-09-21T19:40:22.241Z,64.60
2022-09-21T19:43:21.588Z,64.70
2022-09-21T19:46:05.854Z,64.50
2022-09-21T19:48:43.177Z,64.30
2022-09-21T19:51:18.451Z,64.40
2022-09-21T19:54:08.594Z,64.80
2022-09-21T19:56:58.081Z,64.80
2022-09-21T19:59:45.169Z,65.10
2022-09-21T20:02:15.831Z,64.90
2022-09-21T20:04:51.251Z,64.90
2022-09-21T20:07:30.100Z,65.00
2022-09-21T20:10:10.841Z,65.10
2022-09-21T20:12:47.102Z,65.30
2022-09-21T20:15:20.352Z,65.40
2022-09-21T20:17:53.151Z,65.50
2022-09-21T20:20:26.309Z,65.70
2022-09-21T20:22:56.802Z,65.70
2022-09-21T20:25:28.683Z,65.80
2022-09-21T20:27:58.059Z,65.90
2022-09-21T20:30:27.913Z,65.90
2022-09-21T20:32:59.025Z,66.10
2022-09-21T20:35:29.319Z,66.20
2022-09-21T20:38:02.588Z,66.30
2022-09-21T20:40:32.757Z,66.40
2022-09-21T20:43:01.974Z,66.60
2022-09-21T20:45:32.311Z,66.70
2022-09-21T20:48:13.522Z,66.50
2022-09-21T20:50:43.104Z,66.70
2022-09-21T20:53:13.153Z,66.80
2022-09-21T20:55:42.427Z,66.90
2022-09-21T20:58:12.819Z,67.10
2022-09-21T21:00:40.987Z,67.10
2022-09-21T21:03:09.037Z,67.10
2022-09-21T21:05:37.221Z,67.30
2022-09-21T21:08:05.694Z,67.30
2022-09-21T21:10:35.187Z,67.40
2022-09-21T21:13:03.284Z,67.60
2022-09-21T21:15:32.465Z,67.60
2022-09-21T21:18:00.907Z,67.80
2022-09-21T21:20:30.483Z,68.80
2022-09-21T21:22:58.512Z,68.00
2022-09-21T21:25:27.043Z,68.00
2022-09-21T21:27:59.152Z,68.20
2022-09-21T21:30:27.207Z,68.40
2022-09-21T21:32:55.275Z,68.50
2022-09-21T21:35:23.801Z,68.60
2022-09-21T21:37:52.274Z,68.60
2022-09-21T21:40:20.915Z,68.70
2022-09-21T21:42:49.428Z,69.00
2022-09-21T21:45:21.503Z,68.90
2022-09-21T21:47:50.137Z,69.10
2022-09-21T21:50:18.331Z,68.90
2022-09-21T21:52:46.820Z,69.30
2022-09-21T21:55:14.975Z,69.50
2022-09-21T21:57:43.657Z,69.70
2022-09-21T22:00:13.181Z,69.70
2022-09-21T22:02:42.596Z,69.90
2022-09-21T22:05:10.916Z,70.00
2022-09-21T22:07:41.136Z,70.00
2022-09-21T22:10:10.289Z,70.00
2022-09-21T22:12:39.062Z,70.10
2022-09-21T22:15:08.352Z,70.20
2022-09-21T22:17:36.396Z,70.40
2022-09-21T22:20:06.607Z,70.30
2022-09-21T22:22:34.687Z,70.40
2022-09-21T22:25:03.515Z,70.30
2022-09-21T22:27:31.976Z,70.20
2022-09-21T22:30:00.051Z,70.20
2022-09-21T22:32:28.563Z,70.20
2022-09-21T22:34:56.643Z,70.20
2022-09-21T22:37:26.608Z,70.40
2022-09-21T22:39:54.629Z,70.50
2022-09-21T22:42:23.710Z,70.80
2022-09-21T22:44:51.771Z,70.80
2022-09-21T22:47:19.856Z,70.90
2022-09-21T22:49:48.321Z,70.90
2022-09-21T22:52:16.310Z,71.00
2022-09-21T22:54:46.172Z,71.10
2022-09-21T22:57:14.649Z,71.30
2022-09-21T22:59:42.705Z,71.30
2022-09-21T23:02:12.003Z,71.20
2022-09-21T23:04:40.071Z,71.20
2022-09-21T23:07:08.571Z,71.30
2022-09-21T23:09:36.632Z,71.30
2022-09-21T23:12:06.688Z,71.30
2022-09-21T23:14:35.170Z,71.50
2022-09-21T23:17:03.207Z,71.50
2022-09-21T23:19:31.767Z,71.60
2022-09-21T23:21:59.885Z,71.80
2022-09-21T23:24:27.938Z,71.80
2022-09-21T23:26:56.367Z,71.80
2022-09-21T23:29:25.775Z,71.80
2022-09-21T23:31:53.923Z,72.10
2022-09-21T23:34:22.605Z,72.20
2022-09-21T23:36:51.142Z,72.20
2022-09-21T23:39:19.789Z,72.20
2022-09-21T23:41:47.858Z,72.40
2022-09-21T23:44:16.545Z,72.70
2022-09-21T23:46:45.975Z,72.60
2022-09-21T23:49:14.062Z,72.60
2022-09-21T23:51:43.023Z,72.50
2022-09-21T23:54:11.044Z,72.50
2022-09-21T23:56:39.541Z,72.60
2022-09-21T23:59:07.838Z,72.70
